Terminal Aerodrome Forecast
Issued by NWS Charleston, SC

Home | Current Version | Previous Version | Text Only | Print | Product List | Glossary On
Versions: 1 2 3 4 5 6 7 8 9 10 11 12 13 14 15 16 17 18 19
000
FTUS42 KCHS 271120
TAFSAV
TAF
KSAV 271120Z 2712/2812 11007KT P6SM BKN200
     FM271900 14009KT P6SM FEW040 BKN150
     FM280000 11006KT 6SM BR VCSH SCT015 OVC035
     FM280600 VRB02KT 5SM BR SCT008 BKN015=

USA.gov is the U.S. government's official web portal to all federal, state and local government web resources and services.